sensor_id;sensor_type;location;lat;lon;timestamp;pressure;altitude;pressure_sealevel;temperature;humidity
2841;BME280;53423;49.224;12.074;2022-12-20T00:02:09;98602.22;;;1.17;66.19
2841;BME280;53423;49.224;12.074;2022-12-20T00:04:37;98589.44;;;1.14;65.93
2841;BME280;53423;49.224;12.074;2022-12-20T00:07:05;98600.03;;;0.79;66.71
2841;BME280;53423;49.224;12.074;2022-12-20T00:09:33;98603.41;;;0.79;66.82
2841;BME280;53423;49.224;12.074;2022-12-20T00:12:02;98610.50;;;0.76;66.72
2841;BME280;53423;49.224;12.074;2022-12-20T00:14:30;98602.94;;;0.88;66.02
2841;BME280;53423;49.224;12.074;2022-12-20T00:16:58;98597.44;;;0.79;67.08
2841;BME280;53423;49.224;12.074;2022-12-20T00:19:26;98605.59;;;0.87;66.53
2841;BME280;53423;49.224;12.074;2022-12-20T00:21:54;98613.66;;;0.81;67.14
2841;BME280;53423;49.224;12.074;2022-12-20T00:24:22;98601.88;;;0.92;67.12
2841;BME280;53423;49.224;12.074;2022-12-20T00:26:52;98599.13;;;0.95;66.43
2841;BME280;53423;49.224;12.074;2022-12-20T00:29:21;98600.28;;;0.90;66.52
2841;BME280;53423;49.224;12.074;2022-12-20T00:31:49;98595.34;;;0.70;67.27
2841;BME280;53423;49.224;12.074;2022-12-20T00:34:17;98601.44;;;0.84;66.50
2841;BME280;53423;49.224;12.074;2022-12-20T00:36:45;98593.84;;;0.81;67.03
2841;BME280;53423;49.224;12.074;2022-12-20T00:39:13;98591.94;;;0.85;66.75
2841;BME280;53423;49.224;12.074;2022-12-20T00:41:41;98587.78;;;0.82;67.18
2841;BME280;53423;49.224;12.074;2022-12-20T00:44:10;98584.47;;;0.80;66.83
2841;BME280;53423;49.224;12.074;2022-12-20T00:46:40;98586.38;;;0.77;67.41
2841;BME280;53423;49.224;12.074;2022-12-20T00:49:08;98583.53;;;0.81;67.03
2841;BME280;53423;49.224;12.074;2022-12-20T00:51:36;98586.03;;;0.83;67.69
2841;BME280;53423;49.224;12.074;2022-12-20T00:54:06;98576.13;;;0.91;67.46
2841;BME280;53423;49.224;12.074;2022-12-20T00:56:37;98575.47;;;1.03;66.89
2841;BME280;53423;49.224;12.074;2022-12-20T00:59:05;98584.31;;;0.99;67.15
2841;BME280;53423;49.224;12.074;2022-12-20T01:01:32;98587.31;;;1.07;66.61
2841;BME280;53423;49.224;12.074;2022-12-20T01:04:03;98580.81;;;1.15;66.25
2841;BME280;53423;49.224;12.074;2022-12-20T01:06:31;98590.56;;;1.10;66.20
2841;BME280;53423;49.224;12.074;2022-12-20T01:08:59;98587.13;;;1.10;66.80
2841;BME280;53423;49.224;12.074;2022-12-20T01:11:29;98587.97;;;1.10;66.53
2841;BME280;53423;49.224;12.074;2022-12-20T01:14:00;98586.06;;;1.14;66.32
2841;BME280;53423;49.224;12.074;2022-12-20T01:16:30;98588.78;;;1.11;66.53
2841;BME280;53423;49.224;12.074;2022-12-20T01:18:59;98590.53;;;1.26;66.23
2841;BME280;53423;49.224;12.074;2022-12-20T01:21:28;98585.53;;;1.23;66.37
2841;BME280;53423;49.224;12.074;2022-12-20T01:23:57;98579.78;;;1.18;66.48
2841;BME280;53423;49.224;12.074;2022-12-20T01:26:27;98571.72;;;1.08;65.99
2841;BME280;53423;49.224;12.074;2022-12-20T01:28:56;98569.31;;;1.05;66.57
2841;BME280;53423;49.224;12.074;2022-12-20T01:31:26;98571.50;;;0.97;66.78
2841;BME280;53423;49.224;12.074;2022-12-20T01:33:54;98574.66;;;1.02;66.30
2841;BME280;53423;49.224;12.074;2022-12-20T01:36:24;98578.41;;;0.97;66.77
2841;BME280;53423;49.224;12.074;2022-12-20T01:38:56;98577.16;;;0.88;66.24
2841;BME280;53423;49.224;12.074;2022-12-20T01:41:26;98577.41;;;0.84;66.99
2841;BME280;53423;49.224;12.074;2022-12-20T01:43:57;98568.47;;;0.89;66.78
2841;BME280;53423;49.224;12.074;2022-12-20T01:46:27;98570.06;;;0.92;66.65
2841;BME280;53423;49.224;12.074;2022-12-20T01:48:59;98566.66;;;0.91;66.70
2841;BME280;53423;49.224;12.074;2022-12-20T01:51:31;98564.38;;;1.01;67.00
2841;BME280;53423;49.224;12.074;2022-12-20T01:54:05;98558.16;;;1.05;66.65
2841;BME280;53423;49.224;12.074;2022-12-20T01:56:35;98559.66;;;1.09;66.94
2841;BME280;53423;49.224;12.074;2022-12-20T01:59:04;98559.81;;;1.06;66.59
2841;BME280;53423;49.224;12.074;2022-12-20T02:01:33;98546.84;;;0.92;67.36
2841;BME280;53423;49.224;12.074;2022-12-20T02:04:01;98553.00;;;0.89;66.88
2841;BME280;53423;49.224;12.074;2022-12-20T02:06:30;98550.59;;;0.86;66.99
2841;BME280;53423;49.224;12.074;2022-12-20T02:08:59;98541.59;;;0.78;66.30
2841;BME280;53423;49.224;12.074;2022-12-20T02:11:46;98546.00;;;0.76;66.72
2841;BME280;53423;49.224;12.074;2022-12-20T02:14:27;98542.19;;;0.83;66.21
2841;BME280;53423;49.224;12.074;2022-12-20T02:17:06;98542.19;;;0.98;66.52
2841;BME280;53423;49.224;12.074;2022-12-20T02:23:03;98552.28;;;0.87;66.49
2841;BME280;53423;49.224;12.074;2022-12-20T02:25:45;98544.25;;;0.76;66.83
2841;BME280;53423;49.224;12.074;2022-12-20T02:28:33;98541.94;;;0.87;66.85
2841;BME280;53423;49.224;12.074;2022-12-20T02:31:09;98545.44;;;0.86;66.17
2841;BME280;53423;49.224;12.074;2022-12-20T02:33:41;98542.69;;;0.74;66.79
2841;BME280;53423;49.224;12.074;2022-12-20T02:36:09;98526.63;;;0.69;67.03
2841;BME280;53423;49.224;12.074;2022-12-20T02:38:37;98523.31;;;0.67;67.02
2841;BME280;53423;49.224;12.074;2022-12-20T02:41:08;98522.63;;;0.63;66.06
2841;BME280;53423;49.224;12.074;2022-12-20T02:43:40;98523.88;;;0.72;66.46
2841;BME280;53423;49.224;12.074;2022-12-20T02:46:31;98507.56;;;0.56;66.59
2841;BME280;53423;49.224;12.074;2022-12-20T02:49:09;98522.94;;;0.42;66.97
2841;BME280;53423;49.224;12.074;2022-12-20T02:51:45;98525.63;;;0.71;66.72
2841;BME280;53423;49.224;12.074;2022-12-20T02:54:14;98514.03;;;0.63;66.97
2841;BME280;53423;49.224;12.074;2022-12-20T02:56:46;98528.84;;;0.59;67.38
2841;BME280;53423;49.224;12.074;2022-12-20T02:59:19;98534.19;;;0.56;67.26
2841;BME280;53423;49.224;12.074;2022-12-20T03:01:51;98527.19;;;0.58;67.52
2841;BME280;53423;49.224;12.074;2022-12-20T03:04:23;98527.69;;;0.65;67.28
2841;BME280;53423;49.224;12.074;2022-12-20T03:06:57;98530.19;;;0.66;67.45
2841;BME280;53423;49.224;12.074;2022-12-20T03:09:26;98534.13;;;0.73;66.95
2841;BME280;53423;49.224;12.074;2022-12-20T03:11:55;98512.91;;;0.84;66.70
2841;BME280;53423;49.224;12.074;2022-12-20T03:14:23;98509.47;;;0.83;66.75
2841;BME280;53423;49.224;12.074;2022-12-20T03:16:53;98510.47;;;0.81;66.74
2841;BME280;53423;49.224;12.074;2022-12-20T03:19:21;98508.53;;;0.84;66.64
2841;BME280;53423;49.224;12.074;2022-12-20T03:21:49;98501.91;;;0.80;67.30
2841;BME280;53423;49.224;12.074;2022-12-20T03:24:17;98500.56;;;0.89;66.82
2841;BME280;53423;49.224;12.074;2022-12-20T03:26:46;98499.34;;;0.80;66.40
2841;BME280;53423;49.224;12.074;2022-12-20T03:29:14;98503.25;;;0.72;66.22
2841;BME280;53423;49.224;12.074;2022-12-20T03:31:42;98509.56;;;0.66;66.87
2841;BME280;53423;49.224;12.074;2022-12-20T03:34:11;98494.94;;;0.67;66.39
2841;BME280;53423;49.224;12.074;2022-12-20T03:36:39;98493.50;;;0.61;67.06
2841;BME280;53423;49.224;12.074;2022-12-20T03:39:07;98490.91;;;0.46;67.25
2841;BME280;53423;49.224;12.074;2022-12-20T03:41:35;98499.00;;;0.55;66.97
2841;BME280;53423;49.224;12.074;2022-12-20T03:44:03;98496.66;;;0.66;67.18
2841;BME280;53423;49.224;12.074;2022-12-20T03:46:31;98501.41;;;0.74;67.26
2841;BME280;53423;49.224;12.074;2022-12-20T03:48:59;98503.25;;;0.72;67.29
2841;BME280;53423;49.224;12.074;2022-12-20T03:51:29;98503.81;;;0.77;67.76
2841;BME280;53423;49.224;12.074;2022-12-20T03:53:57;98499.41;;;0.79;67.41
2841;BME280;53423;49.224;12.074;2022-12-20T03:56:25;98495.91;;;0.95;66.36
2841;BME280;53423;49.224;12.074;2022-12-20T03:58:52;98491.50;;;0.97;66.63
2841;BME280;53423;49.224;12.074;2022-12-20T04:01:22;98503.88;;;0.91;66.98
2841;BME280;53423;49.224;12.074;2022-12-20T04:03:51;98503.88;;;0.91;67.17
2841;BME280;53423;49.224;12.074;2022-12-20T04:06:19;98498.09;;;0.87;67.42
2841;BME280;53423;49.224;12.074;2022-12-20T04:08:49;98494.25;;;0.79;67.30
2841;BME280;53423;49.224;12.074;2022-12-20T04:11:17;98502.72;;;0.81;67.27
2841;BME280;53423;49.224;12.074;2022-12-20T04:13:46;98504.72;;;0.91;67.49
2841;BME280;53423;49.224;12.074;2022-12-20T04:16:16;98487.50;;;0.92;67.55
2841;BME280;53423;49.224;12.074;2022-12-20T04:18:45;98485.25;;;0.86;67.70
2841;BME280;53423;49.224;12.074;2022-12-20T04:21:13;98484.44;;;0.85;67.58
2841;BME280;53423;49.224;12.074;2022-12-20T04:23:42;98472.28;;;0.87;67.79
2841;BME280;53423;49.224;12.074;2022-12-20T04:26:11;98473.00;;;0.89;67.01
2841;BME280;53423;49.224;12.074;2022-12-20T04:28:39;98464.94;;;0.95;67.74
2841;BME280;53423;49.224;12.074;2022-12-20T04:31:08;98465.75;;;0.96;66.88
2841;BME280;53423;49.224;12.074;2022-12-20T04:33:36;98459.97;;;0.92;67.50
2841;BME280;53423;49.224;12.074;2022-12-20T04:36:05;98463.44;;;0.91;67.86
2841;BME280;53423;49.224;12.074;2022-12-20T04:38:33;98454.84;;;1.06;66.73
2841;BME280;53423;49.224;12.074;2022-12-20T04:41:01;98452.53;;;1.02;67.57
2841;BME280;53423;49.224;12.074;2022-12-20T04:43:30;98454.53;;;0.97;67.53
2841;BME280;53423;49.224;12.074;2022-12-20T04:45:58;98457.09;;;0.97;67.36
2841;BME280;53423;49.224;12.074;2022-12-20T04:48:27;98466.91;;;1.06;67.28
2841;BME280;53423;49.224;12.074;2022-12-20T04:51:15;98475.00;;;1.00;67.52
2841;BME280;53423;49.224;12.074;2022-12-20T04:53:43;98476.66;;;1.01;67.85
2841;BME280;53423;49.224;12.074;2022-12-20T04:56:15;98483.41;;;1.03;67.66
2841;BME280;53423;49.224;12.074;2022-12-20T04:58:46;98483.00;;;0.95;67.82
2841;BME280;53423;49.224;12.074;2022-12-20T05:01:15;98467.81;;;1.05;67.68
2841;BME280;53423;49.224;12.074;2022-12-20T05:03:43;98480.47;;;1.09;67.84
2841;BME280;53423;49.224;12.074;2022-12-20T05:06:12;98476.22;;;1.08;67.34
2841;BME280;53423;49.224;12.074;2022-12-20T05:08:40;98484.03;;;1.22;67.03
2841;BME280;53423;49.224;12.074;2022-12-20T05:11:09;98485.03;;;1.20;67.22
2841;BME280;53423;49.224;12.074;2022-12-20T05:13:37;98472.31;;;1.17;67.43
2841;BME280;53423;49.224;12.074;2022-12-20T05:16:07;98460.81;;;1.22;67.29
2841;BME280;53423;49.224;12.074;2022-12-20T05:18:35;98452.41;;;1.19;66.95
2841;BME280;53423;49.224;12.074;2022-12-20T05:21:10;98445.56;;;1.18;67.79
2841;BME280;53423;49.224;12.074;2022-12-20T05:23:55;98457.72;;;1.16;67.32
2841;BME280;53423;49.224;12.074;2022-12-20T05:26:40;98457.75;;;1.30;67.18
2841;BME280;53423;49.224;12.074;2022-12-20T05:29:08;98458.38;;;1.19;67.29
2841;BME280;53423;49.224;12.074;2022-12-20T05:31:38;98453.66;;;1.12;67.83
2841;BME280;53423;49.224;12.074;2022-12-20T05:34:06;98465.81;;;1.10;67.79
2841;BME280;53423;49.224;12.074;2022-12-20T05:36:34;98479.88;;;1.20;67.29
2841;BME280;53423;49.224;12.074;2022-12-20T05:39:02;98468.13;;;1.14;67.89
2841;BME280;53423;49.224;12.074;2022-12-20T05:41:30;98469.16;;;1.12;67.45
2841;BME280;53423;49.224;12.074;2022-12-20T05:43:58;98463.16;;;1.11;67.86
2841;BME280;53423;49.224;12.074;2022-12-20T05:46:27;98437.00;;;1.17;67.84
2841;BME280;53423;49.224;12.074;2022-12-20T05:48:56;98434.75;;;1.11;67.95
2841;BME280;53423;49.224;12.074;2022-12-20T05:51:24;98438.91;;;1.14;67.36
2841;BME280;53423;49.224;12.074;2022-12-20T05:53:52;98439.63;;;1.16;67.71
2841;BME280;53423;49.224;12.074;2022-12-20T05:56:20;98432.91;;;1.13;68.32
2841;BME280;53423;49.224;12.074;2022-12-20T05:58:48;98425.56;;;1.21;67.12
2841;BME280;53423;49.224;12.074;2022-12-20T06:01:16;98452.22;;;1.22;67.81
2841;BME280;53423;49.224;12.074;2022-12-20T06:03:44;98459.78;;;1.25;67.32
2841;BME280;53423;49.224;12.074;2022-12-20T06:06:14;98457.94;;;1.27;67.43
2841;BME280;53423;49.224;12.074;2022-12-20T06:08:42;98460.63;;;1.25;67.68
2841;BME280;53423;49.224;12.074;2022-12-20T06:11:10;98446.03;;;1.24;67.69
2841;BME280;53423;49.224;12.074;2022-12-20T06:13:41;98451.94;;;1.26;67.64
2841;BME280;53423;49.224;12.074;2022-12-20T06:16:09;98442.09;;;1.33;67.27
2841;BME280;53423;49.224;12.074;2022-12-20T06:18:37;98445.25;;;1.38;67.12
2841;BME280;53423;49.224;12.074;2022-12-20T06:21:05;98451.75;;;1.29;66.85
2841;BME280;53423;49.224;12.074;2022-12-20T06:23:34;98448.47;;;1.27;67.36
2841;BME280;53423;49.224;12.074;2022-12-20T06:26:02;98453.81;;;1.39;67.16
2841;BME280;53423;49.224;12.074;2022-12-20T06:28:31;98448.84;;;1.50;66.86
2841;BME280;53423;49.224;12.074;2022-12-20T06:30:58;98447.72;;;1.40;66.97
2841;BME280;53423;49.224;12.074;2022-12-20T06:33:26;98445.59;;;1.32;67.33
2841;BME280;53423;49.224;12.074;2022-12-20T06:35:54;98433.56;;;1.17;67.58
2841;BME280;53423;49.224;12.074;2022-12-20T06:38:22;98431.09;;;1.29;67.46
2841;BME280;53423;49.224;12.074;2022-12-20T06:40:52;98419.13;;;1.28;67.10
2841;BME280;53423;49.224;12.074;2022-12-20T06:43:20;98420.44;;;1.36;66.15
2841;BME280;53423;49.224;12.074;2022-12-20T06:45:48;98411.19;;;1.32;67.14
2841;BME280;53423;49.224;12.074;2022-12-20T06:48:16;98419.22;;;1.27;67.45
2841;BME280;53423;49.224;12.074;2022-12-20T06:50:47;98411.09;;;1.33;66.70
2841;BME280;53423;49.224;12.074;2022-12-20T06:53:21;98426.81;;;1.44;67.09
2841;BME280;53423;49.224;12.074;2022-12-20T06:55:50;98412.88;;;1.47;66.08
2841;BME280;53423;49.224;12.074;2022-12-20T06:58:19;98408.28;;;1.38;66.36
2841;BME280;53423;49.224;12.074;2022-12-20T07:00:47;98418.97;;;1.46;65.80
2841;BME280;53423;49.224;12.074;2022-12-20T07:03:16;98415.38;;;1.48;66.23
2841;BME280;53423;49.224;12.074;2022-12-20T07:05:44;98410.56;;;1.42;66.61
2841;BME280;53423;49.224;12.074;2022-12-20T07:08:17;98399.34;;;1.57;66.37
2841;BME280;53423;49.224;12.074;2022-12-20T07:10:46;98407.16;;;1.70;65.43
2841;BME280;53423;49.224;12.074;2022-12-20T07:13:14;98393.25;;;1.58;65.51
2841;BME280;53423;49.224;12.074;2022-12-20T07:15:44;98411.97;;;1.62;65.78
2841;BME280;53423;49.224;12.074;2022-12-20T07:18:12;98429.88;;;1.65;66.22
2841;BME280;53423;49.224;12.074;2022-12-20T07:20:40;98413.38;;;1.67;65.93
2841;BME280;53423;49.224;12.074;2022-12-20T07:23:09;98424.16;;;1.74;65.64
2841;BME280;53423;49.224;12.074;2022-12-20T07:25:36;98445.28;;;1.80;65.14
2841;BME280;53423;49.224;12.074;2022-12-20T07:28:05;98438.03;;;1.73;65.45
2841;BME280;53423;49.224;12.074;2022-12-20T07:30:33;98430.44;;;1.84;65.74
2841;BME280;53423;49.224;12.074;2022-12-20T07:33:02;98439.56;;;1.75;65.26
2841;BME280;53423;49.224;12.074;2022-12-20T07:35:30;98430.91;;;1.76;65.22
2841;BME280;53423;49.224;12.074;2022-12-20T07:37:58;98436.00;;;1.78;65.54
2841;BME280;53423;49.224;12.074;2022-12-20T07:40:26;98444.00;;;1.73;65.83
2841;BME280;53423;49.224;12.074;2022-12-20T07:42:54;98427.22;;;1.80;65.35
2841;BME280;53423;49.224;12.074;2022-12-20T07:45:22;98436.63;;;1.81;65.46
2841;BME280;53423;49.224;12.074;2022-12-20T07:47:50;98437.44;;;1.82;65.89
2841;BME280;53423;49.224;12.074;2022-12-20T07:50:19;98436.00;;;1.78;66.32
2841;BME280;53423;49.224;12.074;2022-12-20T07:52:48;98449.09;;;1.75;66.56
2841;BME280;53423;49.224;12.074;2022-12-20T07:55:17;98428.25;;;1.78;65.52
2841;BME280;53423;49.224;12.074;2022-12-20T07:57:48;98430.91;;;1.76;65.00
2841;BME280;53423;49.224;12.074;2022-12-20T08:00:18;98443.47;;;1.82;66.08
2841;BME280;53423;49.224;12.074;2022-12-20T08:02:51;98432.94;;;1.85;65.17
2841;BME280;53423;49.224;12.074;2022-12-20T08:05:23;98425.28;;;1.84;65.61
2841;BME280;53423;49.224;12.074;2022-12-20T08:07:52;98440.50;;;2.02;65.25
2841;BME280;53423;49.224;12.074;2022-12-20T08:10:26;98438.66;;;1.90;64.95
2841;BME280;53423;49.224;12.074;2022-12-20T08:12:54;98429.06;;;2.06;65.04
2841;BME280;53423;49.224;12.074;2022-12-20T08:15:23;98418.81;;;2.05;63.93
2841;BME280;53423;49.224;12.074;2022-12-20T08:17:51;98417.78;;;2.07;64.80
2841;BME280;53423;49.224;12.074;2022-12-20T08:20:19;98420.38;;;2.07;64.96
2841;BME280;53423;49.224;12.074;2022-12-20T08:22:48;98417.22;;;2.16;64.49
2841;BME280;53423;49.224;12.074;2022-12-20T08:25:16;98430.06;;;2.18;64.49
2841;BME280;53423;49.224;12.074;2022-12-20T08:27:44;98430.50;;;2.24;64.20
2841;BME280;53423;49.224;12.074;2022-12-20T08:30:13;98424.69;;;2.21;63.77
2841;BME280;53423;49.224;12.074;2022-12-20T08:32:41;98415.53;;;2.29;63.26
2841;BME280;53423;49.224;12.074;2022-12-20T08:35:09;98406.47;;;2.36;63.47
2841;BME280;53423;49.224;12.074;2022-12-20T08:37:38;98405.78;;;2.47;62.78
2841;BME280;53423;49.224;12.074;2022-12-20T08:40:10;98401.16;;;2.52;62.06
2841;BME280;53423;49.224;12.074;2022-12-20T08:42:38;98392.50;;;2.39;62.40
2841;BME280;53423;49.224;12.074;2022-12-20T08:45:06;98397.03;;;2.49;62.51
2841;BME280;53423;49.224;12.074;2022-12-20T08:47:34;98387.97;;;2.69;62.26
2841;BME280;53423;49.224;12.074;2022-12-20T08:50:02;98386.56;;;2.78;62.01
2841;BME280;53423;49.224;12.074;2022-12-20T08:52:31;98392.72;;;2.63;62.74
2841;BME280;53423;49.224;12.074;2022-12-20T08:54:59;98381.38;;;2.78;62.41
2841;BME280;53423;49.224;12.074;2022-12-20T08:57:30;98389.78;;;2.81;62.30
2841;BME280;53423;49.224;12.074;2022-12-20T08:59:58;98376.63;;;2.84;61.93
2841;BME280;53423;49.224;12.074;2022-12-20T09:02:25;98374.34;;;2.67;62.35
2841;BME280;53423;49.224;12.074;2022-12-20T09:04:54;98372.75;;;2.65;62.46
2841;BME280;53423;49.224;12.074;2022-12-20T09:07:22;98371.13;;;2.76;62.30
2841;BME280;53423;49.224;12.074;2022-12-20T09:09:50;98366.38;;;2.70;62.76
2841;BME280;53423;49.224;12.074;2022-12-20T09:12:18;98370.22;;;2.77;62.80
2841;BME280;53423;49.224;12.074;2022-12-20T09:14:47;98358.19;;;2.76;61.96
2841;BME280;53423;49.224;12.074;2022-12-20T09:17:15;98361.19;;;2.70;63.00
2841;BME280;53423;49.224;12.074;2022-12-20T09:19:43;98359.56;;;2.82;62.49
2841;BME280;53423;49.224;12.074;2022-12-20T09:22:11;98355.13;;;2.84;62.63
2841;BME280;53423;49.224;12.074;2022-12-20T09:24:39;98343.94;;;2.83;62.41
2841;BME280;53423;49.224;12.074;2022-12-20T09:27:07;98360.31;;;2.96;62.44
2841;BME280;53423;49.224;12.074;2022-12-20T09:29:35;98368.50;;;2.90;62.09
2841;BME280;53423;49.224;12.074;2022-12-20T09:32:05;98368.81;;;2.98;62.36
2841;BME280;53423;49.224;12.074;2022-12-20T09:34:33;98371.34;;;2.86;62.35
2841;BME280;53423;49.224;12.074;2022-12-20T09:37:01;98367.22;;;2.96;62.04
2841;BME280;53423;49.224;12.074;2022-12-20T09:39:29;98363.44;;;3.01;61.77
2841;BME280;53423;49.224;12.074;2022-12-20T09:41:57;98370.97;;;3.04;61.92
2841;BME280;53423;49.224;12.074;2022-12-20T09:44:28;98370.59;;;3.23;61.90
2841;BME280;53423;49.224;12.074;2022-12-20T09:47:00;98362.03;;;3.22;61.51
2841;BME280;53423;49.224;12.074;2022-12-20T09:49:40;98359.00;;;3.28;61.21
2841;BME280;53423;49.224;12.074;2022-12-20T09:52:32;98365.22;;;3.38;61.17
2841;BME280;53423;49.224;12.074;2022-12-20T09:55:12;98365.03;;;3.41;61.17
2841;BME280;53423;49.224;12.074;2022-12-20T09:57:57;98354.47;;;3.32;61.11
2841;BME280;53423;49.224;12.074;2022-12-20T10:00:34;98356.09;;;3.33;61.61
2841;BME280;53423;49.224;12.074;2022-12-20T10:03:02;98344.28;;;3.41;60.92
2841;BME280;53423;49.224;12.074;2022-12-20T10:05:45;98334.56;;;3.57;60.82
2841;BME280;53423;49.224;12.074;2022-12-20T10:08:25;98331.97;;;3.57;60.48
2841;BME280;53423;49.224;12.074;2022-12-20T10:11:05;98323.38;;;3.44;60.00
2841;BME280;53423;49.224;12.074;2022-12-20T10:13:47;98317.34;;;3.56;60.64
2841;BME280;53423;49.224;12.074;2022-12-20T10:16:33;98319.63;;;3.48;61.15
2841;BME280;53423;49.224;12.074;2022-12-20T10:19:14;98329.38;;;3.57;60.80
2841;BME280;53423;49.224;12.074;2022-12-20T10:21:52;98346.13;;;3.77;60.41
2841;BME280;53423;49.224;12.074;2022-12-20T10:24:26;98341.25;;;3.85;60.86
2841;BME280;53423;49.224;12.074;2022-12-20T10:26:57;98324.97;;;3.83;60.53
2841;BME280;53423;49.224;12.074;2022-12-20T10:29:31;98334.47;;;3.95;59.87
2841;BME280;53423;49.224;12.074;2022-12-20T10:32:00;98325.56;;;3.87;60.23
2841;BME280;53423;49.224;12.074;2022-12-20T10:34:28;98316.03;;;3.87;60.23
2841;BME280;53423;49.224;12.074;2022-12-20T10:37:13;98313.72;;;4.08;59.67
2841;BME280;53423;49.224;12.074;2022-12-20T10:39:43;98311.84;;;4.10;59.14
2841;BME280;53423;49.224;12.074;2022-12-20T10:42:35;98309.06;;;4.24;59.31
2841;BME280;53423;49.224;12.074;2022-12-20T10:45:25;98301.97;;;4.15;58.56
2841;BME280;53423;49.224;12.074;2022-12-20T10:48:04;98300.41;;;4.36;59.20
2841;BME280;53423;49.224;12.074;2022-12-20T10:50:32;98295.59;;;4.42;59.30
2841;BME280;53423;49.224;12.074;2022-12-20T10:53:20;98289.19;;;4.59;58.56
2841;BME280;53423;49.224;12.074;2022-12-20T10:55:51;98284.66;;;4.73;57.44
2841;BME280;53423;49.224;12.074;2022-12-20T10:58:31;98278.88;;;4.81;57.24
2841;BME280;53423;49.224;12.074;2022-12-20T11:01:09;98273.44;;;4.84;56.93
2841;BME280;53423;49.224;12.074;2022-12-20T11:03:53;98263.09;;;4.95;55.92
2841;BME280;53423;49.224;12.074;2022-12-20T11:06:24;98253.91;;;5.02;56.22
2841;BME280;53423;49.224;12.074;2022-12-20T11:09:11;98252.72;;;4.95;55.96
2841;BME280;53423;49.224;12.074;2022-12-20T11:11:57;98250.13;;;5.06;55.80
2841;BME280;53423;49.224;12.074;2022-12-20T11:14:26;98230.44;;;5.26;55.21
2841;BME280;53423;49.224;12.074;2022-12-20T11:17:14;98223.44;;;5.15;55.58
2841;BME280;53423;49.224;12.074;2022-12-20T11:20:00;98218.34;;;4.91;55.10
2841;BME280;53423;49.224;12.074;2022-12-20T11:22:45;98221.03;;;4.68;55.97
2841;BME280;53423;49.224;12.074;2022-12-20T11:25:35;98201.94;;;4.91;55.14
2841;BME280;53423;49.224;12.074;2022-12-20T11:28:29;98210.31;;;4.83;56.13
2841;BME280;53423;49.224;12.074;2022-12-20T11:31:10;98197.91;;;5.09;55.31
2841;BME280;53423;49.224;12.074;2022-12-20T11:33:53;98188.50;;;5.19;55.02
2841;BME280;53423;49.224;12.074;2022-12-20T11:36:30;98182.31;;;5.31;54.15
2841;BME280;53423;49.224;12.074;2022-12-20T11:39:11;98181.59;;;5.62;54.12
2841;BME280;53423;49.224;12.074;2022-12-20T11:41:49;98183.22;;;5.63;54.52
2841;BME280;53423;49.224;12.074;2022-12-20T11:44:31;98179.44;;;5.89;53.10
2841;BME280;53423;49.224;12.074;2022-12-20T11:47:32;98165.50;;;6.11;53.44
2841;BME280;53423;49.224;12.074;2022-12-20T11:50:24;98159.44;;;5.79;53.33
2841;BME280;53423;49.224;12.074;2022-12-20T11:52:59;98161.13;;;5.69;53.23
2841;BME280;53423;49.224;12.074;2022-12-20T11:55:32;98168.84;;;5.48;53.71
2841;BME280;53423;49.224;12.074;2022-12-20T11:58:09;98167.34;;;5.24;55.13
2841;BME280;53423;49.224;12.074;2022-12-20T12:00:53;98154.22;;;5.36;54.74
2841;BME280;53423;49.224;12.074;2022-12-20T12:03:29;98152.09;;;5.30;54.78
2841;BME280;53423;49.224;12.074;2022-12-20T12:06:04;98157.16;;;5.43;54.73
2841;BME280;53423;49.224;12.074;2022-12-20T12:08:40;98165.34;;;5.27;54.98
2841;BME280;53423;49.224;12.074;2022-12-20T12:11:14;98162.28;;;5.22;55.03
2841;BME280;53423;49.224;12.074;2022-12-20T12:14:05;98150.34;;;5.08;55.75
2841;BME280;53423;49.224;12.074;2022-12-20T12:16:34;98152.97;;;5.08;55.31
2841;BME280;53423;49.224;12.074;2022-12-20T12:19:08;98156.84;;;4.92;56.24
2841;BME280;53423;49.224;12.074;2022-12-20T12:21:40;98156.50;;;4.96;56.23
2841;BME280;53423;49.224;12.074;2022-12-20T12:24:17;98148.13;;;4.82;57.23
2841;BME280;53423;49.224;12.074;2022-12-20T12:26:46;98142.31;;;4.89;56.97
2841;BME280;53423;49.224;12.074;2022-12-20T12:29:17;98144.41;;;4.62;57.06
2841;BME280;53423;49.224;12.074;2022-12-20T12:31:50;98148.22;;;4.69;57.42
2841;BME280;53423;49.224;12.074;2022-12-20T12:34:32;98144.19;;;4.65;57.31
2841;BME280;53423;49.224;12.074;2022-12-20T12:37:26;98140.66;;;4.66;57.03
2841;BME280;53423;49.224;12.074;2022-12-20T12:40:17;98139.09;;;4.64;56.99
2841;BME280;53423;49.224;12.074;2022-12-20T12:43:05;98135.56;;;4.54;57.25
2841;BME280;53423;49.224;12.074;2022-12-20T12:45:42;98122.94;;;4.49;57.65
2841;BME280;53423;49.224;12.074;2022-12-20T12:48:16;98129.19;;;4.69;57.20
2841;BME280;53423;49.224;12.074;2022-12-20T12:50:47;98140.41;;;4.69;57.75
2841;BME280;53423;49.224;12.074;2022-12-20T12:53:19;98132.28;;;4.63;57.27
2841;BME280;53423;49.224;12.074;2022-12-20T12:55:50;98128.13;;;4.60;57.56
2841;BME280;53423;49.224;12.074;2022-12-20T12:58:38;98125.44;;;4.62;58.28
2841;BME280;53423;49.224;12.074;2022-12-20T13:01:48;98124.59;;;4.61;57.56
2841;BME280;53423;49.224;12.074;2022-12-20T13:04:23;98115.03;;;4.51;58.10
2841;BME280;53423;49.224;12.074;2022-12-20T13:06:57;98124.72;;;4.60;57.94
2841;BME280;53423;49.224;12.074;2022-12-20T13:09:37;98116.94;;;4.60;57.57
2841;BME280;53423;49.224;12.074;2022-12-20T13:15:47;98128.72;;;4.42;58.52
2841;BME280;53423;49.224;12.074;2022-12-20T13:18:24;98139.28;;;4.28;58.54
2841;BME280;53423;49.224;12.074;2022-12-20T13:27:33;98139.84;;;4.20;58.81
2841;BME280;53423;49.224;12.074;2022-12-20T13:30:26;98138.56;;;4.26;59.17
2841;BME280;53423;49.224;12.074;2022-12-20T13:33:16;98149.06;;;4.24;59.28
2841;BME280;53423;49.224;12.074;2022-12-20T13:36:00;98140.16;;;4.39;58.22
2841;BME280;53423;49.224;12.074;2022-12-20T13:41:52;98124.09;;;4.34;58.43
2841;BME280;53423;49.224;12.074;2022-12-20T13:44:40;98121.19;;;4.15;59.09
2841;BME280;53423;49.224;12.074;2022-12-20T13:47:27;98111.44;;;4.19;59.00
2841;BME280;53423;49.224;12.074;2022-12-20T13:49:59;98113.16;;;4.07;59.33
2841;BME280;53423;49.224;12.074;2022-12-20T13:52:30;98113.88;;;4.09;59.39
2841;BME280;53423;49.224;12.074;2022-12-20T13:55:02;98118.59;;;4.04;59.94